sensor_id;sensor_type;location;lat;lon;timestamp;P1;durP1;ratioP1;P2;durP2;ratioP2
75297;SDS011;63896;45.990;18.688;2023-12-20T00:02:09;112.75;;;38.95;;
75297;SDS011;63896;45.990;18.688;2023-12-20T00:05:13;116.17;;;38.47;;
75297;SDS011;63896;45.990;18.688;2023-12-20T00:08:16;77.33;;;29.07;;
75297;SDS011;63896;45.990;18.688;2023-12-20T00:11:19;107.00;;;37.45;;
75297;SDS011;63896;45.990;18.688;2023-12-20T00:14:22;111.88;;;37.15;;
75297;SDS011;63896;45.990;18.688;2023-12-20T00:17:24;91.47;;;34.22;;
75297;SDS011;63896;45.990;18.688;2023-12-20T00:20:28;97.13;;;33.97;;
75297;SDS011;63896;45.990;18.688;2023-12-20T00:23:32;80.80;;;30.20;;
75297;SDS011;63896;45.990;18.688;2023-12-20T00:26:34;107.78;;;35.90;;
75297;SDS011;63896;45.990;18.688;2023-12-20T00:29:37;106.97;;;34.10;;
75297;SDS011;63896;45.990;18.688;2023-12-20T00:32:40;84.78;;;30.48;;
75297;SDS011;63896;45.990;18.688;2023-12-20T00:35:48;108.37;;;35.53;;
75297;SDS011;63896;45.990;18.688;2023-12-20T00:38:51;92.60;;;28.50;;
75297;SDS011;63896;45.990;18.688;2023-12-20T00:41:54;115.00;;;33.28;;
75297;SDS011;63896;45.990;18.688;2023-12-20T00:44:57;91.05;;;33.08;;
75297;SDS011;63896;45.990;18.688;2023-12-20T00:48:00;84.47;;;30.25;;
75297;SDS011;63896;45.990;18.688;2023-12-20T00:51:03;89.50;;;32.57;;
75297;SDS011;63896;45.990;18.688;2023-12-20T00:54:06;78.07;;;29.20;;
75297;SDS011;63896;45.990;18.688;2023-12-20T00:57:09;55.20;;;20.08;;
75297;SDS011;63896;45.990;18.688;2023-12-20T01:00:12;43.25;;;17.27;;
75297;SDS011;63896;45.990;18.688;2023-12-20T01:03:15;81.28;;;30.65;;
75297;SDS011;63896;45.990;18.688;2023-12-20T01:06:18;83.90;;;27.90;;
75297;SDS011;63896;45.990;18.688;2023-12-20T01:09:21;59.17;;;22.73;;
75297;SDS011;63896;45.990;18.688;2023-12-20T01:12:28;80.55;;;25.98;;
75297;SDS011;63896;45.990;18.688;2023-12-20T01:15:31;75.13;;;23.38;;
75297;SDS011;63896;45.990;18.688;2023-12-20T01:18:33;70.30;;;24.83;;
75297;SDS011;63896;45.990;18.688;2023-12-20T01:21:36;80.17;;;24.57;;
75297;SDS011;63896;45.990;18.688;2023-12-20T01:24:39;57.13;;;20.77;;
75297;SDS011;63896;45.990;18.688;2023-12-20T01:27:42;83.57;;;25.75;;
75297;SDS011;63896;45.990;18.688;2023-12-20T01:30:45;62.45;;;22.25;;
75297;SDS011;63896;45.990;18.688;2023-12-20T01:33:48;62.60;;;24.00;;
75297;SDS011;63896;45.990;18.688;2023-12-20T01:36:51;68.17;;;25.87;;
75297;SDS011;63896;45.990;18.688;2023-12-20T01:39:54;68.13;;;24.43;;
75297;SDS011;63896;45.990;18.688;2023-12-20T01:43:00;69.57;;;24.58;;
75297;SDS011;63896;45.990;18.688;2023-12-20T01:46:04;65.75;;;24.10;;
75297;SDS011;63896;45.990;18.688;2023-12-20T01:49:07;87.53;;;26.95;;
75297;SDS011;63896;45.990;18.688;2023-12-20T01:52:11;42.60;;;18.13;;
75297;SDS011;63896;45.990;18.688;2023-12-20T01:55:14;47.07;;;17.33;;
75297;SDS011;63896;45.990;18.688;2023-12-20T01:58:17;44.45;;;16.60;;
75297;SDS011;63896;45.990;18.688;2023-12-20T02:01:21;37.30;;;15.68;;
75297;SDS011;63896;45.990;18.688;2023-12-20T02:04:24;73.10;;;24.42;;
75297;SDS011;63896;45.990;18.688;2023-12-20T02:07:27;71.20;;;23.43;;
75297;SDS011;63896;45.990;18.688;2023-12-20T02:10:33;79.50;;;25.53;;
75297;SDS011;63896;45.990;18.688;2023-12-20T02:13:39;81.93;;;25.55;;
75297;SDS011;63896;45.990;18.688;2023-12-20T02:16:42;76.47;;;25.63;;
75297;SDS011;63896;45.990;18.688;2023-12-20T02:19:44;55.92;;;17.63;;
75297;SDS011;63896;45.990;18.688;2023-12-20T02:22:47;68.37;;;20.57;;
75297;SDS011;63896;45.990;18.688;2023-12-20T02:25:50;48.13;;;18.43;;
75297;SDS011;63896;45.990;18.688;2023-12-20T02:28:53;63.90;;;23.88;;
75297;SDS011;63896;45.990;18.688;2023-12-20T02:31:57;77.88;;;25.67;;
75297;SDS011;63896;45.990;18.688;2023-12-20T02:34:59;88.82;;;25.52;;
75297;SDS011;63896;45.990;18.688;2023-12-20T02:38:02;73.30;;;25.47;;
75297;SDS011;63896;45.990;18.688;2023-12-20T02:41:05;87.80;;;27.63;;
75297;SDS011;63896;45.990;18.688;2023-12-20T02:44:08;91.50;;;27.15;;
75297;SDS011;63896;45.990;18.688;2023-12-20T02:47:11;87.60;;;27.23;;
75297;SDS011;63896;45.990;18.688;2023-12-20T02:50:13;76.10;;;25.40;;
75297;SDS011;63896;45.990;18.688;2023-12-20T02:53:16;97.20;;;28.80;;
75297;SDS011;63896;45.990;18.688;2023-12-20T02:56:19;87.10;;;26.47;;
75297;SDS011;63896;45.990;18.688;2023-12-20T02:59:22;105.53;;;29.05;;
75297;SDS011;63896;45.990;18.688;2023-12-20T03:02:24;90.90;;;28.70;;
75297;SDS011;63896;45.990;18.688;2023-12-20T03:05:27;97.05;;;30.70;;
75297;SDS011;63896;45.990;18.688;2023-12-20T03:08:30;114.70;;;34.90;;
75297;SDS011;63896;45.990;18.688;2023-12-20T03:11:33;84.73;;;29.57;;
75297;SDS011;63896;45.990;18.688;2023-12-20T03:14:35;92.68;;;30.00;;
75297;SDS011;63896;45.990;18.688;2023-12-20T03:17:38;75.93;;;25.42;;
75297;SDS011;63896;45.990;18.688;2023-12-20T03:20:41;87.47;;;29.75;;
75297;SDS011;63896;45.990;18.688;2023-12-20T03:23:44;81.50;;;27.63;;
75297;SDS011;63896;45.990;18.688;2023-12-20T03:26:47;50.37;;;19.73;;
75297;SDS011;63896;45.990;18.688;2023-12-20T03:29:50;84.18;;;27.95;;
75297;SDS011;63896;45.990;18.688;2023-12-20T03:32:53;80.55;;;29.30;;
75297;SDS011;63896;45.990;18.688;2023-12-20T03:35:55;85.70;;;27.60;;
75297;SDS011;63896;45.990;18.688;2023-12-20T03:38:58;73.23;;;27.93;;
75297;SDS011;63896;45.990;18.688;2023-12-20T03:42:01;72.90;;;27.43;;
75297;SDS011;63896;45.990;18.688;2023-12-20T03:45:04;86.38;;;28.40;;
75297;SDS011;63896;45.990;18.688;2023-12-20T03:48:07;82.22;;;28.58;;
75297;SDS011;63896;45.990;18.688;2023-12-20T03:51:10;76.88;;;27.58;;
75297;SDS011;63896;45.990;18.688;2023-12-20T03:54:12;73.87;;;27.47;;
75297;SDS011;63896;45.990;18.688;2023-12-20T03:57:15;75.20;;;27.13;;
75297;SDS011;63896;45.990;18.688;2023-12-20T04:00:18;80.60;;;28.50;;
75297;SDS011;63896;45.990;18.688;2023-12-20T04:03:20;86.03;;;26.65;;
75297;SDS011;63896;45.990;18.688;2023-12-20T04:06:23;92.90;;;30.05;;
75297;SDS011;63896;45.990;18.688;2023-12-20T04:09:26;111.93;;;28.77;;
75297;SDS011;63896;45.990;18.688;2023-12-20T04:12:29;56.23;;;21.77;;
75297;SDS011;63896;45.990;18.688;2023-12-20T04:15:32;94.97;;;30.80;;
75297;SDS011;63896;45.990;18.688;2023-12-20T04:18:34;95.32;;;28.95;;
75297;SDS011;63896;45.990;18.688;2023-12-20T04:21:39;93.55;;;29.15;;
75297;SDS011;63896;45.990;18.688;2023-12-20T04:24:42;85.50;;;28.87;;
75297;SDS011;63896;45.990;18.688;2023-12-20T04:27:45;97.53;;;30.60;;
75297;SDS011;63896;45.990;18.688;2023-12-20T04:30:48;95.13;;;29.58;;
75297;SDS011;63896;45.990;18.688;2023-12-20T04:33:51;100.95;;;29.95;;
75297;SDS011;63896;45.990;18.688;2023-12-20T04:36:54;93.55;;;30.73;;
75297;SDS011;63896;45.990;18.688;2023-12-20T04:39:57;101.43;;;29.47;;
75297;SDS011;63896;45.990;18.688;2023-12-20T04:43:00;100.63;;;30.57;;
75297;SDS011;63896;45.990;18.688;2023-12-20T04:46:03;88.40;;;30.38;;
75297;SDS011;63896;45.990;18.688;2023-12-20T04:49:06;99.78;;;30.85;;
75297;SDS011;63896;45.990;18.688;2023-12-20T04:52:09;103.28;;;31.25;;
75297;SDS011;63896;45.990;18.688;2023-12-20T04:55:12;112.30;;;32.47;;
75297;SDS011;63896;45.990;18.688;2023-12-20T04:58:16;87.13;;;28.63;;
75297;SDS011;63896;45.990;18.688;2023-12-20T05:01:19;108.03;;;29.48;;
75297;SDS011;63896;45.990;18.688;2023-12-20T05:04:23;90.70;;;29.75;;
75297;SDS011;63896;45.990;18.688;2023-12-20T05:07:26;94.82;;;32.05;;
75297;SDS011;63896;45.990;18.688;2023-12-20T05:10:29;79.20;;;29.83;;
75297;SDS011;63896;45.990;18.688;2023-12-20T05:13:32;110.23;;;31.43;;
75297;SDS011;63896;45.990;18.688;2023-12-20T05:16:46;61.80;;;24.52;;
75297;SDS011;63896;45.990;18.688;2023-12-20T05:19:48;93.93;;;29.67;;
75297;SDS011;63896;45.990;18.688;2023-12-20T05:22:51;87.28;;;30.75;;
75297;SDS011;63896;45.990;18.688;2023-12-20T05:25:54;91.50;;;29.43;;
75297;SDS011;63896;45.990;18.688;2023-12-20T05:28:58;108.20;;;32.07;;
75297;SDS011;63896;45.990;18.688;2023-12-20T05:32:00;83.72;;;28.67;;
75297;SDS011;63896;45.990;18.688;2023-12-20T05:35:03;97.32;;;31.77;;
75297;SDS011;63896;45.990;18.688;2023-12-20T05:38:07;103.70;;;32.83;;
75297;SDS011;63896;45.990;18.688;2023-12-20T05:41:10;89.00;;;30.63;;
75297;SDS011;63896;45.990;18.688;2023-12-20T05:44:13;86.97;;;29.40;;
75297;SDS011;63896;45.990;18.688;2023-12-20T05:47:16;91.30;;;29.75;;
75297;SDS011;63896;45.990;18.688;2023-12-20T05:50:19;66.03;;;21.20;;
75297;SDS011;63896;45.990;18.688;2023-12-20T05:53:22;90.70;;;28.80;;
75297;SDS011;63896;45.990;18.688;2023-12-20T05:56:25;96.83;;;29.37;;
75297;SDS011;63896;45.990;18.688;2023-12-20T05:59:28;89.17;;;28.97;;
75297;SDS011;63896;45.990;18.688;2023-12-20T06:02:31;104.47;;;32.25;;
75297;SDS011;63896;45.990;18.688;2023-12-20T06:05:35;88.50;;;29.45;;
75297;SDS011;63896;45.990;18.688;2023-12-20T06:08:38;93.00;;;30.73;;
75297;SDS011;63896;45.990;18.688;2023-12-20T06:11:41;75.37;;;26.20;;
75297;SDS011;63896;45.990;18.688;2023-12-20T06:14:44;82.73;;;31.30;;
75297;SDS011;63896;45.990;18.688;2023-12-20T06:17:47;72.07;;;26.15;;
75297;SDS011;63896;45.990;18.688;2023-12-20T06:20:51;77.18;;;27.23;;
75297;SDS011;63896;45.990;18.688;2023-12-20T06:23:54;83.20;;;26.85;;
75297;SDS011;63896;45.990;18.688;2023-12-20T06:26:57;79.13;;;27.70;;
75297;SDS011;63896;45.990;18.688;2023-12-20T06:30:00;94.37;;;30.47;;
75297;SDS011;63896;45.990;18.688;2023-12-20T06:33:03;55.90;;;20.70;;
75297;SDS011;63896;45.990;18.688;2023-12-20T06:36:07;79.97;;;26.15;;
75297;SDS011;63896;45.990;18.688;2023-12-20T06:39:13;75.38;;;26.92;;
75297;SDS011;63896;45.990;18.688;2023-12-20T06:42:16;71.67;;;26.63;;
75297;SDS011;63896;45.990;18.688;2023-12-20T06:45:19;78.63;;;27.83;;
75297;SDS011;63896;45.990;18.688;2023-12-20T06:48:22;66.55;;;24.35;;
75297;SDS011;63896;45.990;18.688;2023-12-20T06:51:25;58.72;;;21.35;;
75297;SDS011;63896;45.990;18.688;2023-12-20T06:54:28;67.28;;;24.98;;
75297;SDS011;63896;45.990;18.688;2023-12-20T06:57:31;76.60;;;27.63;;
75297;SDS011;63896;45.990;18.688;2023-12-20T07:00:34;76.30;;;27.70;;
75297;SDS011;63896;45.990;18.688;2023-12-20T07:03:37;82.45;;;28.58;;
75297;SDS011;63896;45.990;18.688;2023-12-20T07:06:41;78.57;;;26.80;;
75297;SDS011;63896;45.990;18.688;2023-12-20T07:09:44;89.43;;;30.02;;
75297;SDS011;63896;45.990;18.688;2023-12-20T07:12:46;80.90;;;27.43;;
75297;SDS011;63896;45.990;18.688;2023-12-20T07:15:51;76.40;;;28.53;;
75297;SDS011;63896;45.990;18.688;2023-12-20T07:18:54;86.07;;;27.30;;
75297;SDS011;63896;45.990;18.688;2023-12-20T07:21:59;71.53;;;23.73;;
75297;SDS011;63896;45.990;18.688;2023-12-20T07:25:02;104.45;;;31.20;;
75297;SDS011;63896;45.990;18.688;2023-12-20T07:28:06;79.73;;;26.40;;
75297;SDS011;63896;45.990;18.688;2023-12-20T07:31:09;84.73;;;28.10;;
75297;SDS011;63896;45.990;18.688;2023-12-20T07:34:12;77.15;;;25.45;;
75297;SDS011;63896;45.990;18.688;2023-12-20T07:37:16;80.93;;;25.55;;
75297;SDS011;63896;45.990;18.688;2023-12-20T07:40:19;43.60;;;16.20;;
75297;SDS011;63896;45.990;18.688;2023-12-20T07:43:23;43.17;;;15.90;;
75297;SDS011;63896;45.990;18.688;2023-12-20T07:46:26;67.23;;;23.37;;
75297;SDS011;63896;45.990;18.688;2023-12-20T07:49:30;74.30;;;23.48;;
75297;SDS011;63896;45.990;18.688;2023-12-20T07:52:33;74.97;;;24.10;;
75297;SDS011;63896;45.990;18.688;2023-12-20T07:55:36;64.32;;;22.45;;
75297;SDS011;63896;45.990;18.688;2023-12-20T07:58:39;83.73;;;24.00;;
75297;SDS011;63896;45.990;18.688;2023-12-20T08:01:54;68.43;;;23.17;;
75297;SDS011;63896;45.990;18.688;2023-12-20T08:04:56;60.35;;;19.88;;
75297;SDS011;63896;45.990;18.688;2023-12-20T08:07:59;60.47;;;18.27;;
75297;SDS011;63896;45.990;18.688;2023-12-20T08:11:02;74.45;;;24.92;;
75297;SDS011;63896;45.990;18.688;2023-12-20T08:14:05;38.80;;;15.83;;
75297;SDS011;63896;45.990;18.688;2023-12-20T08:17:08;47.17;;;17.00;;
75297;SDS011;63896;45.990;18.688;2023-12-20T08:20:11;62.72;;;21.75;;
75297;SDS011;63896;45.990;18.688;2023-12-20T08:23:21;78.32;;;25.00;;
75297;SDS011;63896;45.990;18.688;2023-12-20T08:26:28;64.55;;;22.83;;
75297;SDS011;63896;45.990;18.688;2023-12-20T08:29:31;73.33;;;24.57;;
75297;SDS011;63896;45.990;18.688;2023-12-20T08:32:34;75.13;;;24.07;;
75297;SDS011;63896;45.990;18.688;2023-12-20T08:35:38;66.53;;;21.98;;
75297;SDS011;63896;45.990;18.688;2023-12-20T08:38:42;66.63;;;21.30;;
75297;SDS011;63896;45.990;18.688;2023-12-20T08:41:58;73.68;;;24.15;;
75297;SDS011;63896;45.990;18.688;2023-12-20T08:45:06;72.03;;;24.40;;
75297;SDS011;63896;45.990;18.688;2023-12-20T08:48:09;71.17;;;24.03;;
75297;SDS011;63896;45.990;18.688;2023-12-20T08:51:13;67.70;;;24.95;;
75297;SDS011;63896;45.990;18.688;2023-12-20T08:54:16;75.30;;;23.80;;
75297;SDS011;63896;45.990;18.688;2023-12-20T08:57:20;69.13;;;22.30;;
75297;SDS011;63896;45.990;18.688;2023-12-20T09:00:24;64.93;;;22.33;;
75297;SDS011;63896;45.990;18.688;2023-12-20T09:03:30;84.10;;;25.03;;
75297;SDS011;63896;45.990;18.688;2023-12-20T09:06:33;63.10;;;21.58;;
75297;SDS011;63896;45.990;18.688;2023-12-20T09:09:36;72.68;;;23.65;;
75297;SDS011;63896;45.990;18.688;2023-12-20T09:12:39;73.15;;;23.80;;
75297;SDS011;63896;45.990;18.688;2023-12-20T09:15:43;75.87;;;24.30;;
75297;SDS011;63896;45.990;18.688;2023-12-20T09:18:46;65.37;;;21.83;;
75297;SDS011;63896;45.990;18.688;2023-12-20T09:21:49;72.03;;;23.15;;
75297;SDS011;63896;45.990;18.688;2023-12-20T09:24:52;64.72;;;22.17;;
75297;SDS011;63896;45.990;18.688;2023-12-20T09:27:56;67.40;;;23.80;;
75297;SDS011;63896;45.990;18.688;2023-12-20T09:31:00;58.80;;;20.80;;
75297;SDS011;63896;45.990;18.688;2023-12-20T09:34:03;57.03;;;20.23;;
75297;SDS011;63896;45.990;18.688;2023-12-20T09:37:07;60.60;;;21.17;;
75297;SDS011;63896;45.990;18.688;2023-12-20T09:40:11;70.90;;;23.35;;
75297;SDS011;63896;45.990;18.688;2023-12-20T09:43:16;63.72;;;22.52;;
75297;SDS011;63896;45.990;18.688;2023-12-20T09:46:23;60.80;;;22.07;;
75297;SDS011;63896;45.990;18.688;2023-12-20T09:49:30;60.57;;;21.17;;
75297;SDS011;63896;45.990;18.688;2023-12-20T09:52:33;58.92;;;21.48;;
75297;SDS011;63896;45.990;18.688;2023-12-20T09:55:38;60.83;;;21.60;;
75297;SDS011;63896;45.990;18.688;2023-12-20T09:58:43;51.28;;;18.83;;
75297;SDS011;63896;45.990;18.688;2023-12-20T10:01:47;51.20;;;19.17;;
75297;SDS011;63896;45.990;18.688;2023-12-20T10:04:51;63.00;;;21.47;;
75297;SDS011;63896;45.990;18.688;2023-12-20T10:07:54;54.47;;;19.42;;
75297;SDS011;63896;45.990;18.688;2023-12-20T10:10:59;54.47;;;20.30;;
75297;SDS011;63896;45.990;18.688;2023-12-20T10:14:06;60.30;;;22.40;;
75297;SDS011;63896;45.990;18.688;2023-12-20T10:17:09;66.60;;;24.90;;
75297;SDS011;63896;45.990;18.688;2023-12-20T10:20:12;67.03;;;24.13;;
75297;SDS011;63896;45.990;18.688;2023-12-20T10:23:16;59.20;;;21.52;;
75297;SDS011;63896;45.990;18.688;2023-12-20T10:26:24;62.25;;;21.65;;
75297;SDS011;63896;45.990;18.688;2023-12-20T10:29:27;60.13;;;21.00;;
75297;SDS011;63896;45.990;18.688;2023-12-20T10:32:30;63.67;;;21.83;;
75297;SDS011;63896;45.990;18.688;2023-12-20T10:35:34;58.60;;;21.83;;
75297;SDS011;63896;45.990;18.688;2023-12-20T10:38:38;60.38;;;21.08;;
75297;SDS011;63896;45.990;18.688;2023-12-20T10:41:44;54.40;;;20.95;;
75297;SDS011;63896;45.990;18.688;2023-12-20T10:44:49;54.17;;;20.55;;
75297;SDS011;63896;45.990;18.688;2023-12-20T10:47:53;50.80;;;18.77;;
75297;SDS011;63896;45.990;18.688;2023-12-20T10:50:56;60.13;;;22.60;;
75297;SDS011;63896;45.990;18.688;2023-12-20T10:54:00;56.10;;;21.92;;
75297;SDS011;63896;45.990;18.688;2023-12-20T10:57:05;50.97;;;18.92;;
75297;SDS011;63896;45.990;18.688;2023-12-20T11:00:09;53.20;;;19.35;;
75297;SDS011;63896;45.990;18.688;2023-12-20T11:03:21;61.33;;;21.90;;
75297;SDS011;63896;45.990;18.688;2023-12-20T11:09:41;57.38;;;21.73;;
75297;SDS011;63896;45.990;18.688;2023-12-20T11:12:53;63.33;;;22.63;;
75297;SDS011;63896;45.990;18.688;2023-12-20T11:15:59;58.17;;;21.77;;
75297;SDS011;63896;45.990;18.688;2023-12-20T11:19:06;65.60;;;23.10;;
75297;SDS011;63896;45.990;18.688;2023-12-20T11:22:11;69.87;;;24.20;;
75297;SDS011;63896;45.990;18.688;2023-12-20T11:25:14;65.60;;;23.58;;
75297;SDS011;63896;45.990;18.688;2023-12-20T11:28:16;70.60;;;23.30;;
75297;SDS011;63896;45.990;18.688;2023-12-20T11:31:24;74.32;;;24.75;;
75297;SDS011;63896;45.990;18.688;2023-12-20T11:34:31;67.63;;;24.00;;
75297;SDS011;63896;45.990;18.688;2023-12-20T11:37:35;80.83;;;25.87;;
75297;SDS011;63896;45.990;18.688;2023-12-20T11:40:40;65.63;;;24.35;;
75297;SDS011;63896;45.990;18.688;2023-12-20T11:43:45;66.05;;;23.48;;
75297;SDS011;63896;45.990;18.688;2023-12-20T11:46:48;78.25;;;26.35;;
75297;SDS011;63896;45.990;18.688;2023-12-20T11:49:51;66.40;;;24.73;;
75297;SDS011;63896;45.990;18.688;2023-12-20T11:52:54;70.07;;;24.03;;
75297;SDS011;63896;45.990;18.688;2023-12-20T11:55:58;68.80;;;26.15;;
75297;SDS011;63896;45.990;18.688;2023-12-20T11:59:01;76.00;;;27.10;;
75297;SDS011;63896;45.990;18.688;2023-12-20T12:02:21;81.30;;;30.75;;
75297;SDS011;63896;45.990;18.688;2023-12-20T12:05:26;95.37;;;34.87;;
75297;SDS011;63896;45.990;18.688;2023-12-20T12:08:29;99.03;;;36.07;;
75297;SDS011;63896;45.990;18.688;2023-12-20T12:11:32;112.03;;;40.72;;
75297;SDS011;63896;45.990;18.688;2023-12-20T12:14:35;127.75;;;43.22;;
75297;SDS011;63896;45.990;18.688;2023-12-20T12:17:39;107.20;;;38.80;;
75297;SDS011;63896;45.990;18.688;2023-12-20T12:20:42;111.53;;;41.13;;
75297;SDS011;63896;45.990;18.688;2023-12-20T12:23:45;110.20;;;39.67;;
75297;SDS011;63896;45.990;18.688;2023-12-20T12:26:51;102.45;;;37.03;;
75297;SDS011;63896;45.990;18.688;2023-12-20T12:30:03;109.82;;;38.42;;
75297;SDS011;63896;45.990;18.688;2023-12-20T12:33:10;83.13;;;29.60;;
75297;SDS011;63896;45.990;18.688;2023-12-20T12:36:13;89.33;;;31.97;;
75297;SDS011;63896;45.990;18.688;2023-12-20T12:39:18;78.10;;;28.97;;
75297;SDS011;63896;45.990;18.688;2023-12-20T12:42:21;65.78;;;24.90;;
75297;SDS011;63896;45.990;18.688;2023-12-20T12:45:28;65.70;;;24.15;;
75297;SDS011;63896;45.990;18.688;2023-12-20T12:48:30;61.90;;;24.17;;
75297;SDS011;63896;45.990;18.688;2023-12-20T12:51:34;82.07;;;29.70;;
75297;SDS011;63896;45.990;18.688;2023-12-20T12:54:37;71.40;;;27.03;;
75297;SDS011;63896;45.990;18.688;2023-12-20T12:57:40;77.97;;;31.08;;
75297;SDS011;63896;45.990;18.688;2023-12-20T13:00:44;93.85;;;36.63;;
75297;SDS011;63896;45.990;18.688;2023-12-20T13:03:46;92.75;;;35.05;;
75297;SDS011;63896;45.990;18.688;2023-12-20T13:06:49;98.67;;;36.73;;
75297;SDS011;63896;45.990;18.688;2023-12-20T13:09:52;98.23;;;33.77;;
75297;SDS011;63896;45.990;18.688;2023-12-20T13:12:55;94.55;;;34.30;;
75297;SDS011;63896;45.990;18.688;2023-12-20T13:15:58;85.38;;;30.65;;
75297;SDS011;63896;45.990;18.688;2023-12-20T13:19:01;79.90;;;29.45;;
75297;SDS011;63896;45.990;18.688;2023-12-20T13:22:04;72.47;;;27.30;;
75297;SDS011;63896;45.990;18.688;2023-12-20T13:25:07;79.33;;;29.77;;
75297;SDS011;63896;45.990;18.688;2023-12-20T13:28:10;83.00;;;31.27;;
75297;SDS011;63896;45.990;18.688;2023-12-20T13:31:13;82.68;;;28.77;;
75297;SDS011;63896;45.990;18.688;2023-12-20T13:34:16;79.20;;;29.08;;
75297;SDS011;63896;45.990;18.688;2023-12-20T13:37:19;97.83;;;37.40;;
75297;SDS011;63896;45.990;18.688;2023-12-20T13:40:23;82.33;;;31.87;;
75297;SDS011;63896;45.990;18.688;2023-12-20T13:43:26;86.18;;;32.05;;
75297;SDS011;63896;45.990;18.688;2023-12-20T13:46:29;110.82;;;39.92;;
75297;SDS011;63896;45.990;18.688;2023-12-20T13:49:32;132.80;;;44.65;;
75297;SDS011;63896;45.990;18.688;2023-12-20T13:52:35;121.90;;;37.37;;
75297;SDS011;63896;45.990;18.688;2023-12-20T13:55:41;114.73;;;35.57;;
75297;SDS011;63896;45.990;18.688;2023-12-20T13:58:44;108.15;;;35.20;;
75297;SDS011;63896;45.990;18.688;2023-12-20T14:01:48;131.57;;;43.35;;
75297;SDS011;63896;45.990;18.688;2023-12-20T14:04:53;179.02;;;59.53;;
75297;SDS011;63896;45.990;18.688;2023-12-20T14:07:56;160.37;;;54.37;;
75297;SDS011;63896;45.990;18.688;2023-12-20T14:11:02;272.50;;;83.17;;
75297;SDS011;63896;45.990;18.688;2023-12-20T14:14:05;217.05;;;62.85;;
75297;SDS011;63896;45.990;18.688;2023-12-20T14:17:07;270.17;;;74.10;;
75297;SDS011;63896;45.990;18.688;2023-12-20T14:20:11;211.38;;;64.97;;
75297;SDS011;63896;45.990;18.688;2023-12-20T14:23:18;173.20;;;49.90;;
75297;SDS011;63896;45.990;18.688;2023-12-20T14:26:21;171.57;;;48.87;;
75297;SDS011;63896;45.990;18.688;2023-12-20T14:29:23;232.98;;;69.20;;
75297;SDS011;63896;45.990;18.688;2023-12-20T14:32:28;199.30;;;60.63;;
75297;SDS011;63896;45.990;18.688;2023-12-20T14:35:31;182.38;;;56.83;;
75297;SDS011;63896;45.990;18.688;2023-12-20T14:38:34;150.53;;;42.67;;
75297;SDS011;63896;45.990;18.688;2023-12-20T14:41:37;145.50;;;39.73;;
75297;SDS011;63896;45.990;18.688;2023-12-20T14:44:40;166.10;;;45.53;;
75297;SDS011;63896;45.990;18.688;2023-12-20T14:47:43;161.13;;;49.92;;
75297;SDS011;63896;45.990;18.688;2023-12-20T14:50:47;127.85;;;38.38;;
75297;SDS011;63896;45.990;18.688;2023-12-20T14:53:51;117.00;;;30.40;;
75297;SDS011;63896;45.990;18.688;2023-12-20T14:56:53;107.37;;;35.97;;
75297;SDS011;63896;45.990;18.688;2023-12-20T14:59:56;135.48;;;42.30;;
75297;SDS011;63896;45.990;18.688;2023-12-20T15:02:59;156.27;;;43.03;;
75297;SDS011;63896;45.990;18.688;2023-12-20T15:06:02;197.95;;;55.67;;
75297;SDS011;63896;45.990;18.688;2023-12-20T15:09:05;173.40;;;48.37;;
75297;SDS011;63896;45.990;18.688;2023-12-20T15:12:08;174.20;;;56.43;;
75297;SDS011;63896;45.990;18.688;2023-12-20T15:15:11;244.35;;;62.95;;
75297;SDS011;63896;45.990;18.688;2023-12-20T15:18:14;229.32;;;67.05;;
75297;SDS011;63896;45.990;18.688;2023-12-20T15:21:17;194.93;;;62.53;;
75297;SDS011;63896;45.990;18.688;2023-12-20T15:24:20;136.83;;;50.97;;
75297;SDS011;63896;45.990;18.688;2023-12-20T15:27:31;150.97;;;51.23;;
75297;SDS011;63896;45.990;18.688;2023-12-20T15:30:35;127.82;;;44.30;;
75297;SDS011;63896;45.990;18.688;2023-12-20T15:33:39;116.03;;;42.70;;
75297;SDS011;63896;45.990;18.688;2023-12-20T15:36:42;117.78;;;42.80;;
75297;SDS011;63896;45.990;18.688;2023-12-20T15:39:45;111.67;;;42.37;;
75297;SDS011;63896;45.990;18.688;2023-12-20T15:42:48;119.77;;;43.70;;
75297;SDS011;63896;45.990;18.688;2023-12-20T15:45:51;122.10;;;42.33;;
75297;SDS011;63896;45.990;18.688;2023-12-20T15:48:56;121.40;;;44.05;;
75297;SDS011;63896;45.990;18.688;2023-12-20T15:51:59;122.43;;;47.50;;
75297;SDS011;63896;45.990;18.688;2023-12-20T15:55:06;124.27;;;49.43;;
75297;SDS011;63896;45.990;18.688;2023-12-20T15:58:10;128.30;;;50.57;;
75297;SDS011;63896;45.990;18.688;2023-12-20T16:01:13;181.52;;;67.47;;
75297;SDS011;63896;45.990;18.688;2023-12-20T16:04:16;187.30;;;70.03;;
75297;SDS011;63896;45.990;18.688;2023-12-20T16:07:19;152.95;;;56.80;;
75297;SDS011;63896;45.990;18.688;2023-12-20T16:10:22;131.17;;;50.73;;
75297;SDS011;63896;45.990;18.688;2023-12-20T16:13:25;112.63;;;45.07;;
75297;SDS011;63896;45.990;18.688;2023-12-20T16:16:28;113.80;;;44.45;;
75297;SDS011;63896;45.990;18.688;2023-12-20T16:19:31;103.93;;;41.83;;
75297;SDS011;63896;45.990;18.688;2023-12-20T16:22:34;98.03;;;39.28;;
75297;SDS011;63896;45.990;18.688;2023-12-20T16:25:36;107.50;;;43.63;;
75297;SDS011;63896;45.990;18.688;2023-12-20T16:28:40;174.07;;;62.57;;
75297;SDS011;63896;45.990;18.688;2023-12-20T16:31:43;166.60;;;64.72;;
75297;SDS011;63896;45.990;18.688;2023-12-20T16:34:46;184.73;;;66.35;;
75297;SDS011;63896;45.990;18.688;2023-12-20T16:37:49;175.35;;;68.18;;
75297;SDS011;63896;45.990;18.688;2023-12-20T16:40:51;159.33;;;60.50;;
75297;SDS011;63896;45.990;18.688;2023-12-20T16:43:54;145.97;;;55.53;;
75297;SDS011;63896;45.990;18.688;2023-12-20T16:46:57;138.88;;;53.47;;
75297;SDS011;63896;45.990;18.688;2023-12-20T16:50:00;120.47;;;47.42;;
75297;SDS011;63896;45.990;18.688;2023-12-20T16:53:05;119.57;;;47.33;;
75297;SDS011;63896;45.990;18.688;2023-12-20T16:56:08;134.70;;;50.67;;
75297;SDS011;63896;45.990;18.688;2023-12-20T16:59:11;127.77;;;51.23;;
75297;SDS011;63896;45.990;18.688;2023-12-20T17:02:13;156.75;;;60.70;;
75297;SDS011;63896;45.990;18.688;2023-12-20T17:05:16;147.60;;;54.80;;
75297;SDS011;63896;45.990;18.688;2023-12-20T17:08:20;236.13;;;92.88;;
75297;SDS011;63896;45.990;18.688;2023-12-20T17:11:23;225.47;;;91.83;;
75297;SDS011;63896;45.990;18.688;2023-12-20T17:14:26;184.10;;;77.13;;
75297;SDS011;63896;45.990;18.688;2023-12-20T17:17:29;174.50;;;67.45;;
75297;SDS011;63896;45.990;18.688;2023-12-20T17:20:32;144.48;;;58.78;;
75297;SDS011;63896;45.990;18.688;2023-12-20T17:23:35;166.93;;;66.22;;
75297;SDS011;63896;45.990;18.688;2023-12-20T17:26:38;162.77;;;64.10;;
75297;SDS011;63896;45.990;18.688;2023-12-20T17:29:40;169.80;;;67.67;;
75297;SDS011;63896;45.990;18.688;2023-12-20T17:32:45;175.48;;;70.15;;
75297;SDS011;63896;45.990;18.688;2023-12-20T17:35:52;147.48;;;54.63;;
75297;SDS011;63896;45.990;18.688;2023-12-20T17:38:57;128.68;;;47.83;;